createdAt,value
2022-11-23T00:00:01.185Z,1.10
2022-11-23T00:10:01.051Z,1.20
2022-11-23T00:20:01.013Z,1.10
2022-11-23T00:30:00.140Z,1.10
2022-11-23T00:40:01.294Z,1.10
2022-11-23T00:50:00.151Z,1.20
2022-11-23T01:00:01.040Z,1.10
2022-11-23T01:10:00.989Z,1.10
2022-11-23T01:20:01.053Z,1.10
2022-11-23T01:30:01.071Z,1.10
2022-11-23T01:40:02.066Z,1.60
2022-11-23T01:50:00.979Z,1.10
2022-11-23T02:00:00.148Z,1.10
2022-11-23T02:10:00.994Z,1.20
2022-11-23T02:20:01.132Z,1.10
2022-11-23T02:30:00.144Z,1.10
2022-11-23T02:40:01.067Z,1.20
2022-11-23T02:50:00.132Z,1.20
2022-11-23T03:00:02.133Z,1.10
2022-11-23T03:10:00.153Z,1.30
2022-11-23T03:20:02.002Z,1.30
2022-11-23T03:30:00.169Z,1.10
2022-11-23T03:40:01.284Z,1.10
2022-11-23T03:50:01.480Z,1.20
2022-11-23T04:00:01.250Z,1.20
2022-11-23T04:10:00.161Z,1.10
2022-11-23T04:20:00.162Z,1.10
2022-11-23T04:30:01.474Z,1.20
2022-11-23T04:40:00.188Z,1.10
2022-11-23T04:50:00.119Z,1.10
2022-11-23T05:00:00.167Z,1.10
2022-11-23T05:10:01.255Z,1.10
2022-11-23T05:20:01.526Z,1.10
2022-11-23T05:30:01.306Z,1.10
2022-11-23T05:40:01.586Z,1.10
2022-11-23T05:50:01.468Z,1.10
2022-11-23T06:00:01.978Z,1.10
2022-11-23T06:10:00.140Z,1.20
2022-11-23T06:20:01.353Z,1.10
2022-11-23T06:30:01.522Z,1.10
2022-11-23T06:40:01.305Z,1.20
2022-11-23T06:50:01.245Z,1.10
2022-11-23T07:00:00.149Z,1.30
2022-11-23T07:10:03.886Z,1.10
2022-11-23T07:20:01.082Z,1.10
2022-11-23T07:30:01.267Z,1.10
2022-11-23T07:40:01.475Z,1.10
2022-11-23T07:50:01.925Z,1.20
2022-11-23T08:00:01.622Z,1.10
2022-11-23T08:10:01.494Z,1.50
2022-11-23T08:20:01.939Z,1.10
2022-11-23T08:30:03.485Z,1.20
2022-11-23T08:50:00.162Z,1.10
2022-11-23T09:00:01.781Z,1.10
2022-11-23T09:10:01.460Z,1.10
2022-11-23T09:20:01.251Z,1.20
2022-11-23T09:30:01.465Z,1.10
2022-11-23T09:40:01.312Z,1.10
2022-11-23T09:50:01.051Z,1.20
2022-11-23T10:00:01.293Z,1.10
2022-11-23T10:10:00.988Z,1.10
2022-11-23T10:20:00.193Z,1.10
2022-11-23T10:30:01.054Z,1.50
2022-11-23T10:40:01.267Z,1.20
2022-11-23T10:50:01.043Z,1.10
2022-11-23T11:00:01.705Z,1.20
2022-11-23T11:10:01.171Z,1.40
2022-11-23T11:20:01.076Z,24.20
2022-11-23T11:30:01.916Z,31.20
2022-11-23T11:40:01.032Z,29.70
2022-11-23T11:50:01.541Z,27.60
2022-11-23T12:00:01.137Z,25.30
2022-11-23T12:10:01.030Z,30.50
2022-11-23T12:20:01.305Z,25.90
2022-11-23T12:30:01.543Z,27.50
2022-11-23T12:40:01.471Z,25.90
2022-11-23T12:50:00.124Z,21.70
2022-11-23T13:00:00.163Z,25.10
2022-11-23T13:10:01.296Z,21.50
2022-11-23T13:20:01.039Z,27.00
2022-11-23T13:30:01.402Z,20.60
2022-11-23T13:40:01.221Z,25.00
2022-11-23T13:50:01.239Z,21.90
2022-11-23T14:00:00.149Z,19.80
2022-11-23T14:10:02.948Z,20.70
2022-11-23T14:20:01.347Z,25.00
2022-11-23T14:30:00.160Z,19.90
2022-11-23T14:40:01.627Z,24.10
2022-11-23T14:50:00.145Z,19.60
2022-11-23T15:00:01.117Z,20.90
2022-11-23T15:10:01.549Z,18.60
2022-11-23T15:20:01.861Z,17.80
2022-11-23T15:30:01.393Z,19.00
2022-11-23T15:40:00.305Z,22.60
2022-11-23T15:50:01.220Z,18.90
2022-11-23T16:00:01.532Z,25.00
2022-11-23T16:10:02.329Z,29.50
2022-11-23T16:20:00.161Z,24.80
2022-11-23T16:30:03.104Z,26.40
2022-11-23T16:40:02.248Z,25.50
2022-11-23T16:50:01.246Z,27.20
2022-11-23T17:10:01.524Z,28.80
2022-11-23T17:20:04.068Z,22.20
2022-11-23T17:30:00.147Z,28.20
2022-11-23T17:40:00.191Z,27.70
2022-11-23T17:50:01.258Z,31.50
2022-11-23T18:00:03.429Z,34.40
2022-11-23T18:10:00.982Z,29.30
2022-11-23T18:20:01.290Z,31.90
2022-11-23T18:30:01.044Z,35.20
2022-11-23T18:40:01.732Z,29.80
2022-11-23T18:50:06.132Z,35.50
2022-11-23T19:00:00.613Z,32.90
2022-11-23T19:10:00.956Z,43.70
2022-11-23T19:20:01.080Z,49.00
2022-11-23T19:30:01.987Z,43.70
2022-11-23T19:40:01.076Z,41.50
2022-11-23T19:50:01.238Z,39.20
2022-11-23T20:10:01.267Z,37.30
2022-11-23T20:20:01.072Z,39.70
2022-11-23T20:30:01.261Z,49.30
2022-11-23T20:40:01.106Z,42.70
2022-11-23T20:50:00.971Z,42.80
2022-11-23T21:00:01.045Z,39.80
2022-11-23T21:10:01.253Z,42.50
2022-11-23T21:20:00.183Z,41.80
2022-11-23T21:30:01.313Z,50.20
2022-11-23T21:40:01.465Z,51.80
2022-11-23T21:50:01.282Z,47.20
2022-11-23T22:00:01.504Z,56.30
2022-11-23T22:10:02.134Z,45.40
2022-11-23T22:30:01.042Z,54.70
2022-11-23T22:40:01.029Z,47.20
2022-11-23T22:50:00.178Z,55.50
2022-11-23T23:00:02.680Z,71.80
2022-11-23T23:10:01.034Z,78.20
2022-11-23T23:20:01.225Z,92.70
2022-11-23T23:30:01.529Z,70.40
2022-11-23T23:40:03.285Z,76.00
2022-11-23T23:50:00.910Z,72.50
